createdAt,value
2019-02-27T00:02:17.619Z,49.55
2019-02-27T00:04:44.319Z,47.90
2019-02-27T00:07:10.982Z,49.23
2019-02-27T00:09:38.539Z,54.35
2019-02-27T00:12:05.257Z,50.20
2019-02-27T00:14:31.975Z,52.40
2019-02-27T00:16:58.584Z,48.17
2019-02-27T00:19:25.241Z,45.25
2019-02-27T00:21:51.965Z,47.93
2019-02-27T00:24:18.686Z,49.60
2019-02-27T00:26:45.395Z,51.75
2019-02-27T00:29:12.190Z,44.38
2019-02-27T00:31:38.821Z,50.10
2019-02-27T00:34:05.519Z,48.02
2019-02-27T00:36:32.299Z,47.83
2019-02-27T00:38:59.038Z,53.85
2019-02-27T00:41:25.743Z,44.60
2019-02-27T00:43:52.459Z,43.05
2019-02-27T00:46:19.056Z,44.13
2019-02-27T00:48:45.723Z,46.65
2019-02-27T00:51:12.911Z,40.35
2019-02-27T00:53:39.663Z,45.67
2019-02-27T00:56:06.336Z,40.28
2019-02-27T00:58:33.002Z,43.87
2019-02-27T01:01:00.631Z,45.08
2019-02-27T01:03:27.265Z,43.65
2019-02-27T01:05:53.971Z,45.23
2019-02-27T01:08:20.638Z,48.90
2019-02-27T01:10:47.430Z,51.60
2019-02-27T01:13:15.247Z,43.45
2019-02-27T01:15:44.696Z,42.83
2019-02-27T01:18:10.419Z,47.85
2019-02-27T01:20:37.192Z,45.50
2019-02-27T01:23:03.913Z,47.08
2019-02-27T01:25:30.568Z,44.23
2019-02-27T01:27:57.319Z,44.95
2019-02-27T01:30:24.332Z,53.65
2019-02-27T01:32:51.604Z,51.42
2019-02-27T01:35:19.371Z,44.70
2019-02-27T01:37:47.001Z,50.45
2019-02-27T01:40:17.430Z,47.85
2019-02-27T01:42:42.851Z,51.60
2019-02-27T01:45:12.370Z,55.65
2019-02-27T01:47:39.023Z,47.13
2019-02-27T01:50:25.560Z,49.30
2019-02-27T01:52:52.205Z,51.83
2019-02-27T01:55:21.672Z,53.42
2019-02-27T01:57:47.592Z,49.80
2019-02-27T02:00:14.728Z,47.95
2019-02-27T02:02:41.851Z,43.40
2019-02-27T02:05:08.574Z,45.75
2019-02-27T02:07:40.157Z,43.55
2019-02-27T02:10:09.475Z,44.50
2019-02-27T02:12:36.308Z,46.50
2019-02-27T02:15:18.643Z,39.20
2019-02-27T02:20:27.014Z,46.00
2019-02-27T02:23:07.722Z,37.88
2019-02-27T02:25:50.134Z,40.28
2019-02-27T02:28:32.362Z,39.65
2019-02-27T02:33:38.187Z,37.42
2019-02-27T02:36:26.891Z,35.73
2019-02-27T02:39:18.057Z,37.40
2019-02-27T02:41:55.441Z,40.92
2019-02-27T02:44:34.753Z,39.10
2019-02-27T02:47:05.096Z,36.88
2019-02-27T02:49:59.197Z,38.75
2019-02-27T02:52:32.353Z,34.10
2019-02-27T02:55:27.163Z,37.83
2019-02-27T02:58:02.891Z,39.98
2019-02-27T03:00:56.150Z,35.10
2019-02-27T03:03:36.205Z,33.58
2019-02-27T03:06:23.289Z,34.25
2019-02-27T03:09:12.248Z,38.70
2019-02-27T03:11:55.775Z,34.48
2019-02-27T03:14:28.802Z,33.88
2019-02-27T03:17:21.526Z,34.20
2019-02-27T03:20:17.603Z,33.67
2019-02-27T03:23:05.025Z,40.95
2019-02-27T03:25:53.963Z,41.30
2019-02-27T03:28:27.140Z,32.50
2019-02-27T03:31:16.031Z,32.67
2019-02-27T03:34:05.534Z,35.90
2019-02-27T03:36:45.811Z,34.98
2019-02-27T03:39:39.227Z,31.15
2019-02-27T03:42:12.262Z,29.95
2019-02-27T03:44:55.869Z,32.83
2019-02-27T03:47:26.534Z,29.65
2019-02-27T03:50:19.803Z,27.82
2019-02-27T03:52:52.834Z,28.15
2019-02-27T03:55:32.857Z,29.07
2019-02-27T03:58:26.781Z,31.30
2019-02-27T04:01:30.621Z,27.42
2019-02-27T04:03:58.965Z,25.85
2019-02-27T04:06:32.297Z,30.68
2019-02-27T04:08:59.647Z,31.25
2019-02-27T04:11:26.477Z,28.90
2019-02-27T04:13:53.177Z,29.10
2019-02-27T04:16:19.963Z,29.07
2019-02-27T04:18:46.588Z,30.32
2019-02-27T04:21:13.712Z,30.57
2019-02-27T04:23:40.435Z,29.65
2019-02-27T04:26:07.046Z,29.37
2019-02-27T04:28:33.719Z,33.00
2019-02-27T04:31:00.419Z,32.13
2019-02-27T04:33:27.042Z,31.48
2019-02-27T04:35:53.659Z,34.60
2019-02-27T04:38:20.353Z,33.20
2019-02-27T04:40:47.073Z,30.55
2019-02-27T04:43:13.766Z,30.55
2019-02-27T04:45:40.510Z,29.42
2019-02-27T04:48:07.123Z,33.67
2019-02-27T04:50:33.794Z,30.77
2019-02-27T04:53:00.451Z,33.40
2019-02-27T04:55:27.169Z,31.77
2019-02-27T04:57:53.876Z,30.20
2019-02-27T05:00:20.592Z,31.52
2019-02-27T05:02:47.189Z,35.33
2019-02-27T05:05:13.862Z,31.75
2019-02-27T05:07:40.518Z,36.93
2019-02-27T05:10:08.357Z,32.25
2019-02-27T05:12:35.070Z,37.67
2019-02-27T05:15:04.068Z,32.67
2019-02-27T05:17:30.411Z,28.85
2019-02-27T05:19:57.102Z,28.52
2019-02-27T05:22:26.182Z,32.95
2019-02-27T05:24:52.318Z,34.03
2019-02-27T05:27:18.994Z,30.02
2019-02-27T05:29:46.754Z,33.35
2019-02-27T05:32:13.449Z,33.05
2019-02-27T05:34:40.165Z,30.32
2019-02-27T05:37:06.879Z,28.70
2019-02-27T05:39:33.876Z,32.33
2019-02-27T05:42:00.957Z,34.13
2019-02-27T05:44:27.804Z,27.80
2019-02-27T05:46:54.393Z,26.87
2019-02-27T05:49:20.996Z,26.60
2019-02-27T05:51:48.763Z,33.65
2019-02-27T05:54:15.385Z,27.02
2019-02-27T05:56:41.955Z,31.45
2019-02-27T05:59:08.646Z,25.60
2019-02-27T06:01:38.013Z,25.48
2019-02-27T06:04:03.772Z,26.77
2019-02-27T06:06:30.521Z,26.07
2019-02-27T06:08:57.133Z,29.75
2019-02-27T06:11:23.725Z,27.93
2019-02-27T06:13:50.387Z,28.20
2019-02-27T06:16:17.087Z,23.38
2019-02-27T06:18:43.786Z,24.20
2019-02-27T06:21:10.473Z,25.17
2019-02-27T06:23:37.745Z,22.73
2019-02-27T06:26:05.267Z,20.48
2019-02-27T06:28:32.936Z,19.65
2019-02-27T06:31:02.535Z,23.18
2019-02-27T06:33:28.160Z,21.40
2019-02-27T06:35:54.850Z,22.87
2019-02-27T06:38:24.992Z,14.95
2019-02-27T06:40:51.959Z,14.25
2019-02-27T06:43:18.623Z,12.15
2019-02-27T06:45:46.421Z,15.80
2019-02-27T06:48:13.322Z,15.83
2019-02-27T06:50:40.065Z,13.53
2019-02-27T06:53:06.663Z,14.40
2019-02-27T06:55:33.963Z,13.95
2019-02-27T06:58:00.754Z,13.20
2019-02-27T07:00:27.407Z,11.95
2019-02-27T07:02:55.441Z,16.07
2019-02-27T07:05:22.675Z,13.20
2019-02-27T07:07:49.271Z,12.20
2019-02-27T07:10:19.630Z,12.63
2019-02-27T07:12:45.627Z,11.18
2019-02-27T07:15:20.829Z,10.72
2019-02-27T07:17:47.562Z,12.53
2019-02-27T07:20:14.975Z,12.43
2019-02-27T07:22:45.680Z,10.58
2019-02-27T07:25:14.710Z,15.23
2019-02-27T07:27:41.483Z,12.63
2019-02-27T07:30:11.310Z,14.45
2019-02-27T07:32:37.974Z,11.60
2019-02-27T07:35:07.094Z,11.22
2019-02-27T07:37:33.764Z,11.53
2019-02-27T07:40:00.375Z,16.77
2019-02-27T07:42:27.100Z,13.32
2019-02-27T07:44:55.614Z,10.98
2019-02-27T07:47:22.327Z,10.40
2019-02-27T07:49:49.021Z,11.00
2019-02-27T07:52:15.639Z,14.15
2019-02-27T07:54:42.274Z,10.88
2019-02-27T07:57:08.998Z,15.65
2019-02-27T07:59:37.973Z,12.93
2019-02-27T08:02:04.323Z,9.45
2019-02-27T08:04:31.029Z,9.53
2019-02-27T08:06:57.732Z,17.52
2019-02-27T08:09:24.413Z,13.85
2019-02-27T08:11:51.098Z,15.65
2019-02-27T08:14:17.819Z,15.93
2019-02-27T08:16:44.523Z,12.47
2019-02-27T08:19:11.546Z,13.10
2019-02-27T08:21:38.919Z,14.85
2019-02-27T08:24:07.362Z,16.17
2019-02-27T08:26:36.447Z,11.08
2019-02-27T08:29:02.631Z,15.80
2019-02-27T08:31:29.378Z,13.48
2019-02-27T08:33:55.980Z,11.10
2019-02-27T08:36:22.716Z,13.25
2019-02-27T08:38:49.403Z,13.72
2019-02-27T08:41:16.154Z,11.45
2019-02-27T08:43:42.871Z,15.72
2019-02-27T08:46:09.578Z,17.20
2019-02-27T08:48:36.276Z,14.45
2019-02-27T08:51:08.730Z,9.68
2019-02-27T08:53:35.394Z,15.30
2019-02-27T08:56:02.063Z,14.93
2019-02-27T08:58:29.611Z,11.18
2019-02-27T09:00:58.089Z,12.80
2019-02-27T09:03:24.827Z,14.63
2019-02-27T09:05:53.775Z,15.05
2019-02-27T09:08:20.236Z,12.03
2019-02-27T09:10:46.926Z,15.45
2019-02-27T09:13:13.564Z,11.30
2019-02-27T09:15:41.683Z,15.43
2019-02-27T09:18:08.533Z,19.95
2019-02-27T09:20:35.122Z,17.48
2019-02-27T09:23:01.874Z,16.85
2019-02-27T09:25:28.601Z,13.13
2019-02-27T09:27:55.219Z,12.45
2019-02-27T09:30:28.906Z,23.87
2019-02-27T09:32:51.998Z,14.45
2019-02-27T09:35:18.747Z,12.47
2019-02-27T09:37:48.384Z,17.32
2019-02-27T09:40:22.129Z,11.53
2019-02-27T09:42:50.285Z,14.78
2019-02-27T09:45:23.656Z,14.80
2019-02-27T09:47:50.343Z,13.58
2019-02-27T09:50:47.663Z,14.40
2019-02-27T09:53:11.527Z,14.78
2019-02-27T09:55:38.300Z,17.32
2019-02-27T09:58:09.899Z,16.05
2019-02-27T10:00:37.146Z,13.38
2019-02-27T10:03:04.044Z,15.55
2019-02-27T10:05:31.168Z,13.58
2019-02-27T10:07:58.870Z,13.53
2019-02-27T10:10:25.539Z,14.55
2019-02-27T10:12:52.334Z,12.68
2019-02-27T10:15:19.054Z,13.95
2019-02-27T10:17:45.750Z,13.10
2019-02-27T10:20:12.380Z,14.50
2019-02-27T10:22:39.096Z,14.28
2019-02-27T10:25:08.534Z,14.20
2019-02-27T10:27:34.459Z,15.15
2019-02-27T10:30:01.167Z,14.10
2019-02-27T10:32:27.885Z,14.70
2019-02-27T10:34:54.523Z,15.30
2019-02-27T10:37:21.360Z,15.70
2019-02-27T10:39:48.239Z,13.38
2019-02-27T10:42:14.843Z,20.35
2019-02-27T10:44:41.472Z,18.10
2019-02-27T10:47:08.265Z,14.38
2019-02-27T10:49:34.890Z,15.88
2019-02-27T10:52:01.475Z,16.55
2019-02-27T10:54:28.161Z,16.10
2019-02-27T10:56:56.348Z,16.95
2019-02-27T10:59:24.420Z,13.62
2019-02-27T11:01:51.103Z,16.45
2019-02-27T11:04:17.744Z,14.78
2019-02-27T11:06:45.185Z,17.48
2019-02-27T11:09:21.486Z,15.40
2019-02-27T11:11:48.763Z,22.13
2019-02-27T11:14:15.427Z,19.82
2019-02-27T11:16:42.118Z,16.27
2019-02-27T11:19:08.735Z,15.35
2019-02-27T11:21:35.382Z,17.27
2019-02-27T11:24:02.117Z,16.48
2019-02-27T11:26:32.971Z,14.93
2019-02-27T11:28:57.860Z,20.35
2019-02-27T11:31:24.711Z,13.03
2019-02-27T11:33:51.323Z,19.23
2019-02-27T11:36:17.988Z,18.92
2019-02-27T11:38:44.670Z,17.85
2019-02-27T11:41:15.163Z,19.45
2019-02-27T11:43:41.505Z,15.90
2019-02-27T11:46:08.297Z,15.30
2019-02-27T11:48:35.111Z,15.40
2019-02-27T11:51:01.826Z,18.60
2019-02-27T11:53:28.551Z,15.38
2019-02-27T11:55:55.160Z,18.80
2019-02-27T11:58:21.920Z,18.17
2019-02-27T12:00:48.606Z,13.68
2019-02-27T12:03:15.315Z,16.05
2019-02-27T12:05:42.008Z,17.55
2019-02-27T12:08:08.708Z,14.25
2019-02-27T12:10:35.305Z,15.48
2019-02-27T12:13:01.956Z,17.20
2019-02-27T12:15:28.659Z,13.28
2019-02-27T12:17:59.922Z,17.82
2019-02-27T12:20:23.761Z,17.67
2019-02-27T12:22:50.438Z,14.63
2019-02-27T12:25:18.826Z,20.85
2019-02-27T12:27:49.626Z,17.35
2019-02-27T12:30:18.786Z,16.77
2019-02-27T12:32:45.595Z,18.95
2019-02-27T12:35:20.849Z,14.05
2019-02-27T12:37:47.515Z,12.70
2019-02-27T12:40:16.979Z,14.93
2019-02-27T12:42:43.824Z,18.40
2019-02-27T12:45:15.632Z,14.53
2019-02-27T12:47:42.479Z,16.10
2019-02-27T12:50:12.702Z,15.78
2019-02-27T12:52:44.329Z,20.23
2019-02-27T12:55:08.415Z,16.77
2019-02-27T12:57:35.156Z,15.50
2019-02-27T13:00:02.145Z,20.10
2019-02-27T13:02:35.647Z,21.33
2019-02-27T13:04:57.971Z,19.12
2019-02-27T13:07:24.778Z,15.03
2019-02-27T13:09:51.735Z,19.52
2019-02-27T13:12:18.443Z,18.98
2019-02-27T13:14:45.108Z,17.95
2019-02-27T13:17:11.744Z,24.30
2019-02-27T13:19:39.106Z,16.52
2019-02-27T13:22:05.870Z,16.37
2019-02-27T13:24:33.575Z,17.75
2019-02-27T13:27:00.374Z,18.10
2019-02-27T13:29:27.065Z,16.27
2019-02-27T13:31:53.681Z,15.88
2019-02-27T13:34:20.337Z,19.57
2019-02-27T13:36:46.997Z,13.30
2019-02-27T13:39:13.818Z,15.60
2019-02-27T13:41:42.377Z,15.48
2019-02-27T13:44:09.136Z,14.65
2019-02-27T13:46:35.760Z,17.17
2019-02-27T13:49:02.406Z,15.15
2019-02-27T13:51:29.125Z,17.20
2019-02-27T13:54:00.293Z,14.20
2019-02-27T13:56:25.114Z,16.52
2019-02-27T13:58:52.833Z,16.02
2019-02-27T14:01:19.421Z,15.98
2019-02-27T14:03:48.382Z,16.32
2019-02-27T14:06:14.607Z,15.63
2019-02-27T14:08:41.196Z,14.80
2019-02-27T14:11:07.795Z,13.45
2019-02-27T14:13:34.495Z,14.30
2019-02-27T14:16:01.600Z,19.82
2019-02-27T14:18:28.428Z,16.48
2019-02-27T14:20:55.210Z,13.53
2019-02-27T14:23:21.897Z,14.58
2019-02-27T14:25:48.521Z,12.20
2019-02-27T14:28:15.293Z,17.27
2019-02-27T14:30:47.391Z,18.23
2019-02-27T14:33:19.588Z,19.15
2019-02-27T14:35:48.270Z,13.30
2019-02-27T14:38:14.895Z,17.65
2019-02-27T14:40:41.552Z,12.68
2019-02-27T14:43:08.252Z,14.20
2019-02-27T14:45:39.486Z,16.82
2019-02-27T14:48:03.641Z,14.53
2019-02-27T14:50:33.520Z,17.57
2019-02-27T14:52:58.841Z,13.83
2019-02-27T14:55:25.580Z,17.57
2019-02-27T14:57:52.251Z,15.68
2019-02-27T15:00:24.675Z,16.10
2019-02-27T15:02:52.151Z,16.17
2019-02-27T15:05:18.984Z,12.93
2019-02-27T15:07:45.595Z,15.15
2019-02-27T15:10:19.757Z,15.45
2019-02-27T15:12:46.531Z,14.75
2019-02-27T15:15:16.031Z,14.83
2019-02-27T15:17:42.735Z,17.02
2019-02-27T15:20:12.443Z,24.72
2019-02-27T15:22:39.151Z,18.15
2019-02-27T15:25:08.836Z,13.03
2019-02-27T15:27:35.606Z,14.75
2019-02-27T15:30:02.538Z,15.85
2019-02-27T15:32:30.280Z,17.48
2019-02-27T15:34:57.147Z,13.60
2019-02-27T15:37:23.741Z,13.22
2019-02-27T15:39:52.049Z,15.23
2019-02-27T15:42:19.000Z,18.40
2019-02-27T15:44:45.691Z,17.07
2019-02-27T15:47:12.510Z,14.98
2019-02-27T15:49:39.244Z,12.98
2019-02-27T15:52:07.050Z,14.98
2019-02-27T15:54:34.448Z,15.15
2019-02-27T15:57:01.135Z,18.67
2019-02-27T15:59:27.883Z,19.05
2019-02-27T16:01:54.654Z,20.85
2019-02-27T16:04:21.915Z,21.57
2019-02-27T16:06:51.134Z,35.60
2019-02-27T16:09:17.678Z,47.65
2019-02-27T16:11:44.305Z,45.35
2019-02-27T16:14:10.999Z,36.93
2019-02-27T16:16:37.620Z,37.50
2019-02-27T16:19:04.331Z,26.55
2019-02-27T16:21:31.004Z,16.90
2019-02-27T16:23:59.365Z,18.55
2019-02-27T16:26:29.254Z,22.20
2019-02-27T16:28:56.501Z,36.33
2019-02-27T16:31:23.234Z,52.62
2019-02-27T16:33:49.837Z,44.13
2019-02-27T16:36:16.582Z,36.65
2019-02-27T16:38:43.212Z,28.98
2019-02-27T16:41:10.115Z,26.17
2019-02-27T16:43:37.873Z,27.52
2019-02-27T16:46:08.645Z,26.48
2019-02-27T16:48:35.360Z,33.98
2019-02-27T16:51:02.227Z,26.27
2019-02-27T16:53:28.834Z,29.75
2019-02-27T16:55:55.485Z,34.63
2019-02-27T16:58:22.231Z,27.98
2019-02-27T17:00:48.851Z,30.05
2019-02-27T17:03:15.472Z,34.05
2019-02-27T17:05:43.231Z,32.83
2019-02-27T17:08:10.657Z,28.12
2019-02-27T17:10:37.999Z,32.30
2019-02-27T17:13:04.823Z,31.37
2019-02-27T17:15:34.536Z,29.98
2019-02-27T17:18:00.195Z,35.65
2019-02-27T17:20:27.647Z,32.48
2019-02-27T17:22:54.602Z,29.12
2019-02-27T17:25:21.436Z,36.48
2019-02-27T17:27:50.847Z,34.58
2019-02-27T17:30:36.630Z,35.00
2019-02-27T17:33:01.380Z,37.30
2019-02-27T17:35:29.588Z,35.43
2019-02-27T17:37:56.191Z,33.00
2019-02-27T17:40:24.728Z,40.20
2019-02-27T17:42:53.569Z,44.42
2019-02-27T17:45:21.770Z,42.60
2019-02-27T17:47:48.483Z,41.60
2019-02-27T17:50:15.790Z,38.20
2019-02-27T17:52:42.680Z,41.35
2019-02-27T17:55:11.567Z,41.20
2019-02-27T17:57:38.256Z,43.50
2019-02-27T18:00:12.879Z,38.83
2019-02-27T18:02:40.293Z,37.40
2019-02-27T18:05:08.389Z,38.73
2019-02-27T18:07:35.095Z,36.77
2019-02-27T18:10:02.364Z,36.30
2019-02-27T18:12:29.871Z,39.65
2019-02-27T18:14:56.507Z,39.50
2019-02-27T18:17:23.209Z,44.10
2019-02-27T18:19:50.200Z,43.00
2019-02-27T18:22:17.757Z,55.10
2019-02-27T18:24:44.432Z,49.08
2019-02-27T18:27:11.080Z,45.90
2019-02-27T18:29:38.296Z,52.30
2019-02-27T18:32:06.591Z,51.88
2019-02-27T18:34:34.563Z,58.15
2019-02-27T18:37:01.242Z,62.08
2019-02-27T18:39:27.904Z,55.08
2019-02-27T18:41:55.890Z,53.68
2019-02-27T18:44:22.796Z,47.75
2019-02-27T18:46:49.472Z,52.10
2019-02-27T18:49:18.535Z,49.95
2019-02-27T18:51:44.779Z,50.80
2019-02-27T18:54:11.546Z,53.90
2019-02-27T18:56:40.385Z,69.95
2019-02-27T18:59:06.795Z,56.05
2019-02-27T19:01:33.491Z,51.80
2019-02-27T19:04:01.262Z,51.83
2019-02-27T19:06:28.093Z,57.70
2019-02-27T19:08:54.807Z,55.00
2019-02-27T19:11:22.513Z,57.67
2019-02-27T19:13:49.161Z,60.58
2019-02-27T19:16:17.525Z,53.65
2019-02-27T19:18:44.484Z,47.80
2019-02-27T19:21:11.075Z,49.88
2019-02-27T19:23:37.780Z,50.28
2019-02-27T19:26:06.356Z,48.90
2019-02-27T19:28:32.966Z,57.23
2019-02-27T19:30:59.623Z,71.25
2019-02-27T19:33:26.314Z,72.95
2019-02-27T19:35:55.822Z,84.65
2019-02-27T19:38:21.547Z,65.52
2019-02-27T19:40:48.163Z,83.75
2019-02-27T19:43:14.832Z,68.97
2019-02-27T19:45:42.301Z,79.07
2019-02-27T19:48:09.207Z,72.22
2019-02-27T19:50:35.855Z,76.77
2019-02-27T19:53:05.201Z,73.35
2019-02-27T19:55:31.162Z,73.52
2019-02-27T19:57:57.823Z,63.42
2019-02-27T20:00:33.702Z,64.05
2019-02-27T20:03:01.078Z,63.13
2019-02-27T20:05:28.285Z,81.22
2019-02-27T20:07:55.182Z,69.30
2019-02-27T20:10:21.919Z,84.00
2019-02-27T20:12:52.750Z,93.22
2019-02-27T20:15:18.867Z,83.80
2019-02-27T20:17:45.520Z,88.58
2019-02-27T20:20:13.939Z,92.10
2019-02-27T20:22:41.142Z,97.17
2019-02-27T20:25:10.521Z,88.78
2019-02-27T20:27:37.261Z,82.40
2019-02-27T20:30:07.397Z,70.52
2019-02-27T20:32:34.588Z,90.42
2019-02-27T20:35:01.257Z,81.67
2019-02-27T20:37:28.019Z,80.70
2019-02-27T20:39:58.383Z,77.27
2019-02-27T20:42:23.419Z,77.85
2019-02-27T20:44:50.156Z,82.72
2019-02-27T20:47:16.792Z,82.75
2019-02-27T20:49:44.701Z,79.10
2019-02-27T20:52:15.037Z,83.07
2019-02-27T20:54:40.796Z,89.65
2019-02-27T20:57:08.940Z,84.60
2019-02-27T20:59:35.906Z,78.62
2019-02-27T21:02:02.689Z,80.25
2019-02-27T21:04:29.271Z,76.95
2019-02-27T21:06:57.052Z,76.30
2019-02-27T21:09:23.769Z,81.42
2019-02-27T21:11:51.815Z,75.28
2019-02-27T21:14:20.505Z,78.83
2019-02-27T21:16:48.133Z,82.90
2019-02-27T21:19:14.731Z,74.17
2019-02-27T21:21:41.418Z,78.30
2019-02-27T21:24:08.076Z,83.47
2019-02-27T21:26:34.804Z,68.07
2019-02-27T21:29:01.557Z,83.47
2019-02-27T21:31:28.346Z,73.83
2019-02-27T21:33:55.010Z,77.97
2019-02-27T21:36:21.738Z,78.12
2019-02-27T21:38:50.300Z,80.25
2019-02-27T21:41:17.089Z,77.90
2019-02-27T21:43:43.820Z,74.42
2019-02-27T21:46:11.728Z,66.67
2019-02-27T21:48:39.202Z,72.82
2019-02-27T21:51:05.852Z,69.58
2019-02-27T21:53:32.499Z,65.40
2019-02-27T21:55:59.298Z,64.82
2019-02-27T21:58:25.986Z,70.40
2019-02-27T22:00:52.640Z,70.83
2019-02-27T22:03:19.265Z,66.17
2019-02-27T22:05:46.584Z,65.83
2019-02-27T22:08:13.171Z,64.20
2019-02-27T22:10:39.852Z,61.15
2019-02-27T22:13:10.526Z,64.03
2019-02-27T22:15:35.103Z,62.93
2019-02-27T22:18:01.751Z,60.78
2019-02-27T22:20:28.450Z,67.20
2019-02-27T22:22:55.048Z,63.00
2019-02-27T22:25:21.777Z,67.20
2019-02-27T22:27:48.483Z,66.95
2019-02-27T22:30:17.622Z,77.15
2019-02-27T22:32:47.405Z,60.55
2019-02-27T22:35:12.811Z,61.68
2019-02-27T22:37:39.625Z,65.28
2019-02-27T22:40:09.654Z,63.87
2019-02-27T22:42:36.354Z,64.40
2019-02-27T22:45:04.942Z,60.43
2019-02-27T22:47:31.846Z,63.63
2019-02-27T22:49:58.547Z,73.42
2019-02-27T22:52:25.143Z,60.75
2019-02-27T22:54:51.928Z,59.00
2019-02-27T22:57:18.588Z,60.25
2019-02-27T22:59:45.387Z,58.87
2019-02-27T23:02:12.339Z,61.60
2019-02-27T23:04:39.037Z,62.10
2019-02-27T23:07:05.691Z,64.17
2019-02-27T23:09:32.470Z,58.75
2019-02-27T23:11:59.331Z,62.88
2019-02-27T23:14:26.048Z,67.65
2019-02-27T23:16:52.842Z,57.60
2019-02-27T23:19:19.628Z,59.03
2019-02-27T23:21:46.211Z,63.13
2019-02-27T23:24:12.865Z,58.90
2019-02-27T23:26:39.523Z,54.93
2019-02-27T23:29:06.537Z,63.63
2019-02-27T23:31:33.335Z,56.65
2019-02-27T23:33:59.994Z,67.60
2019-02-27T23:36:26.624Z,67.65
2019-02-27T23:38:53.289Z,61.08
2019-02-27T23:41:22.770Z,65.80
2019-02-27T23:43:48.623Z,59.15
2019-02-27T23:46:15.664Z,59.55
2019-02-27T23:48:43.894Z,63.52
2019-02-27T23:51:10.510Z,60.75
2019-02-27T23:53:37.189Z,71.05
2019-02-27T23:56:04.353Z,62.17
2019-02-27T23:58:31.095Z,68.22
